Purdys Mills, New York
Current Conditions -  °F | °C
As of 12:05 PM on Sunday 21 Dec 2014 (Local Time) from KPBG Reporting Station
Haze Haze  
Wind Chill: -10°   Ceiling: 2900
Heat Index: -6°   Visibility: 6mi
Dew Point: -8°   Wind: 7mph
Humidity: 85%   Direction: 80°E
Pressure: 30.34"   Gusts: NA
Location:  44.8543°N, 73.663°W
Report Text: KPBG 211705Z AUTO 08006KT 6SM BR OVC029 M06/M08 A3034 RMK AO2 T10561078
Loading
Personal Weather Stations






























Interactive Weather Map New forecast layout! Learn more

10-Day Weather Forecast

Advertisements
Track Severe Weather on mobile